sensor_id;sensor_type;location;lat;lon;timestamp;temperature;humidity
18805;DHT22;9530;48.930;9.526;2023-02-15T00:00:44;-1.10;99.90
18805;DHT22;9530;48.930;9.526;2023-02-15T00:03:12;-1.10;99.90
18805;DHT22;9530;48.930;9.526;2023-02-15T00:05:39;-1.10;99.90
18805;DHT22;9530;48.930;9.526;2023-02-15T00:08:05;-1.10;99.90
18805;DHT22;9530;48.930;9.526;2023-02-15T00:10:32;-1.20;99.90
18805;DHT22;9530;48.930;9.526;2023-02-15T00:13:00;-1.20;99.90
18805;DHT22;9530;48.930;9.526;2023-02-15T00:15:26;-1.20;99.90
18805;DHT22;9530;48.930;9.526;2023-02-15T00:17:53;-1.20;99.90
18805;DHT22;9530;48.930;9.526;2023-02-15T00:20:21;-1.30;99.90
18805;DHT22;9530;48.930;9.526;2023-02-15T00:22:48;-1.20;99.90
18805;DHT22;9530;48.930;9.526;2023-02-15T00:25:14;-1.20;99.90
18805;DHT22;9530;48.930;9.526;2023-02-15T00:27:41;-1.30;99.90
18805;DHT22;9530;48.930;9.526;2023-02-15T00:30:08;-1.30;99.90
18805;DHT22;9530;48.930;9.526;2023-02-15T00:32:35;-1.30;99.90
18805;DHT22;9530;48.930;9.526;2023-02-15T00:35:02;-1.30;99.90
18805;DHT22;9530;48.930;9.526;2023-02-15T00:37:30;-1.30;99.90
18805;DHT22;9530;48.930;9.526;2023-02-15T00:39:56;-1.30;99.90
18805;DHT22;9530;48.930;9.526;2023-02-15T00:42:23;-1.30;99.90
18805;DHT22;9530;48.930;9.526;2023-02-15T00:44:50;-1.40;99.90
18805;DHT22;9530;48.930;9.526;2023-02-15T00:47:16;-1.50;99.90
18805;DHT22;9530;48.930;9.526;2023-02-15T00:49:43;-1.40;99.90
18805;DHT22;9530;48.930;9.526;2023-02-15T00:52:10;-1.40;99.90
18805;DHT22;9530;48.930;9.526;2023-02-15T00:54:38;-1.40;99.90
18805;DHT22;9530;48.930;9.526;2023-02-15T00:57:05;-1.50;99.90
18805;DHT22;9530;48.930;9.526;2023-02-15T00:59:31;-1.40;99.90
18805;DHT22;9530;48.930;9.526;2023-02-15T01:01:58;-1.50;99.90
18805;DHT22;9530;48.930;9.526;2023-02-15T01:04:25;-1.50;99.90
18805;DHT22;9530;48.930;9.526;2023-02-15T01:06:51;-1.50;99.90
18805;DHT22;9530;48.930;9.526;2023-02-15T01:09:18;-1.50;99.90
18805;DHT22;9530;48.930;9.526;2023-02-15T01:11:46;-1.50;99.90
18805;DHT22;9530;48.930;9.526;2023-02-15T01:14:12;-1.60;99.90
18805;DHT22;9530;48.930;9.526;2023-02-15T01:16:40;-1.70;99.90
18805;DHT22;9530;48.930;9.526;2023-02-15T01:19:06;-1.70;99.90
18805;DHT22;9530;48.930;9.526;2023-02-15T01:21:33;-1.70;99.90
18805;DHT22;9530;48.930;9.526;2023-02-15T01:24:00;-1.70;99.90
18805;DHT22;9530;48.930;9.526;2023-02-15T01:26:27;-1.70;99.90
18805;DHT22;9530;48.930;9.526;2023-02-15T01:28:55;-1.80;99.90
18805;DHT22;9530;48.930;9.526;2023-02-15T01:31:22;-1.80;99.90
18805;DHT22;9530;48.930;9.526;2023-02-15T01:33:49;-1.80;99.90
18805;DHT22;9530;48.930;9.526;2023-02-15T01:36:16;-1.80;99.90
18805;DHT22;9530;48.930;9.526;2023-02-15T01:38:42;-1.90;99.90
18805;DHT22;9530;48.930;9.526;2023-02-15T01:41:09;-1.90;99.90
18805;DHT22;9530;48.930;9.526;2023-02-15T01:43:50;-1.90;99.90
18805;DHT22;9530;48.930;9.526;2023-02-15T01:46:22;-1.80;99.90
18805;DHT22;9530;48.930;9.526;2023-02-15T01:48:51;-1.80;99.90
18805;DHT22;9530;48.930;9.526;2023-02-15T01:51:21;-1.80;99.90
18805;DHT22;9530;48.930;9.526;2023-02-15T01:53:52;-1.90;99.90
18805;DHT22;9530;48.930;9.526;2023-02-15T01:56:23;-1.90;99.90
18805;DHT22;9530;48.930;9.526;2023-02-15T01:58:53;-1.90;99.90
18805;DHT22;9530;48.930;9.526;2023-02-15T02:01:22;-2.00;99.90
18805;DHT22;9530;48.930;9.526;2023-02-15T02:03:57;-2.00;99.90
18805;DHT22;9530;48.930;9.526;2023-02-15T02:06:26;-2.00;99.90
18805;DHT22;9530;48.930;9.526;2023-02-15T02:08:53;-2.10;99.90
18805;DHT22;9530;48.930;9.526;2023-02-15T02:11:20;-2.10;99.90
18805;DHT22;9530;48.930;9.526;2023-02-15T02:13:47;-2.10;99.90
18805;DHT22;9530;48.930;9.526;2023-02-15T02:16:20;-2.00;99.90
18805;DHT22;9530;48.930;9.526;2023-02-15T02:18:58;-2.10;99.90
18805;DHT22;9530;48.930;9.526;2023-02-15T02:21:43;-2.10;99.90
18805;DHT22;9530;48.930;9.526;2023-02-15T02:24:30;-2.10;99.90
18805;DHT22;9530;48.930;9.526;2023-02-15T02:27:29;-2.00;99.90
18805;DHT22;9530;48.930;9.526;2023-02-15T02:35:59;-2.10;99.90
18805;DHT22;9530;48.930;9.526;2023-02-15T02:38:35;-2.10;99.90
18805;DHT22;9530;48.930;9.526;2023-02-15T02:41:09;-2.10;99.90
18805;DHT22;9530;48.930;9.526;2023-02-15T02:43:43;-2.10;99.90
18805;DHT22;9530;48.930;9.526;2023-02-15T02:46:17;-2.20;99.90
18805;DHT22;9530;48.930;9.526;2023-02-15T02:48:48;-2.20;99.90
18805;DHT22;9530;48.930;9.526;2023-02-15T02:51:15;-2.20;99.90
18805;DHT22;9530;48.930;9.526;2023-02-15T02:53:48;-2.30;99.90
18805;DHT22;9530;48.930;9.526;2023-02-15T02:56:22;-2.30;99.90
18805;DHT22;9530;48.930;9.526;2023-02-15T02:58:52;-2.40;99.90
18805;DHT22;9530;48.930;9.526;2023-02-15T03:01:26;-2.40;99.90
18805;DHT22;9530;48.930;9.526;2023-02-15T03:03:57;-2.30;99.90
18805;DHT22;9530;48.930;9.526;2023-02-15T03:06:28;-2.40;99.90
18805;DHT22;9530;48.930;9.526;2023-02-15T03:08:58;-2.50;99.90
18805;DHT22;9530;48.930;9.526;2023-02-15T03:11:27;-2.40;99.90
18805;DHT22;9530;48.930;9.526;2023-02-15T03:13:54;-2.30;99.90
18805;DHT22;9530;48.930;9.526;2023-02-15T03:16:21;-2.20;99.90
18805;DHT22;9530;48.930;9.526;2023-02-15T03:18:57;-2.20;99.90
18805;DHT22;9530;48.930;9.526;2023-02-15T03:21:31;-2.30;99.90
18805;DHT22;9530;48.930;9.526;2023-02-15T03:24:03;-2.40;99.90
18805;DHT22;9530;48.930;9.526;2023-02-15T03:26:32;-2.30;99.90
18805;DHT22;9530;48.930;9.526;2023-02-15T03:29:03;-2.30;99.90
18805;DHT22;9530;48.930;9.526;2023-02-15T03:31:33;-2.20;99.90
18805;DHT22;9530;48.930;9.526;2023-02-15T03:34:06;-2.10;99.90
18805;DHT22;9530;48.930;9.526;2023-02-15T03:36:42;-2.10;99.90
18805;DHT22;9530;48.930;9.526;2023-02-15T03:39:15;-2.20;99.90
18805;DHT22;9530;48.930;9.526;2023-02-15T03:41:48;-2.10;99.90
18805;DHT22;9530;48.930;9.526;2023-02-15T03:44:21;-2.10;99.90
18805;DHT22;9530;48.930;9.526;2023-02-15T03:46:54;-2.10;99.90
18805;DHT22;9530;48.930;9.526;2023-02-15T03:49:26;-2.20;99.90
18805;DHT22;9530;48.930;9.526;2023-02-15T03:51:56;-2.30;99.90
18805;DHT22;9530;48.930;9.526;2023-02-15T03:54:26;-2.30;99.90
18805;DHT22;9530;48.930;9.526;2023-02-15T03:57:11;-2.30;99.90
18805;DHT22;9530;48.930;9.526;2023-02-15T03:59:57;-2.50;99.90
18805;DHT22;9530;48.930;9.526;2023-02-15T04:02:59;-2.60;99.90
18805;DHT22;9530;48.930;9.526;2023-02-15T04:05:31;-2.50;99.90
18805;DHT22;9530;48.930;9.526;2023-02-15T04:07:58;-2.40;99.90
18805;DHT22;9530;48.930;9.526;2023-02-15T04:10:25;-2.50;99.90
18805;DHT22;9530;48.930;9.526;2023-02-15T04:13:09;-2.60;99.90
18805;DHT22;9530;48.930;9.526;2023-02-15T04:15:35;-2.50;99.90
18805;DHT22;9530;48.930;9.526;2023-02-15T04:18:20;-2.40;99.90
18805;DHT22;9530;48.930;9.526;2023-02-15T04:20:47;-2.50;99.90
18805;DHT22;9530;48.930;9.526;2023-02-15T04:23:32;-2.40;99.90
18805;DHT22;9530;48.930;9.526;2023-02-15T04:26:16;-2.40;99.90
18805;DHT22;9530;48.930;9.526;2023-02-15T04:28:43;-2.40;99.90
18805;DHT22;9530;48.930;9.526;2023-02-15T04:31:09;-2.40;99.90
18805;DHT22;9530;48.930;9.526;2023-02-15T04:33:36;-2.50;99.90
18805;DHT22;9530;48.930;9.526;2023-02-15T04:36:05;-2.50;99.90
18805;DHT22;9530;48.930;9.526;2023-02-15T04:38:31;-2.40;99.90
18805;DHT22;9530;48.930;9.526;2023-02-15T04:40:58;-2.40;99.90
18805;DHT22;9530;48.930;9.526;2023-02-15T04:43:25;-2.40;99.90
18805;DHT22;9530;48.930;9.526;2023-02-15T04:45:51;-2.40;99.90
18805;DHT22;9530;48.930;9.526;2023-02-15T04:48:18;-2.40;99.90
18805;DHT22;9530;48.930;9.526;2023-02-15T04:50:45;-2.40;99.90
18805;DHT22;9530;48.930;9.526;2023-02-15T04:53:13;-2.40;99.90
18805;DHT22;9530;48.930;9.526;2023-02-15T04:55:42;-2.30;99.90
18805;DHT22;9530;48.930;9.526;2023-02-15T04:58:08;-2.20;99.90
18805;DHT22;9530;48.930;9.526;2023-02-15T05:00:35;-2.30;99.90
18805;DHT22;9530;48.930;9.526;2023-02-15T05:03:02;-2.30;99.90
18805;DHT22;9530;48.930;9.526;2023-02-15T05:05:28;-2.40;99.90
18805;DHT22;9530;48.930;9.526;2023-02-15T05:07:55;-2.30;99.90
18805;DHT22;9530;48.930;9.526;2023-02-15T05:10:23;-2.30;99.90
18805;DHT22;9530;48.930;9.526;2023-02-15T05:12:50;-2.10;99.90
18805;DHT22;9530;48.930;9.526;2023-02-15T05:15:17;-2.10;99.90
18805;DHT22;9530;48.930;9.526;2023-02-15T05:17:43;-2.10;99.90
18805;DHT22;9530;48.930;9.526;2023-02-15T05:20:10;-2.00;99.90
18805;DHT22;9530;48.930;9.526;2023-02-15T05:22:37;-2.10;99.90
18805;DHT22;9530;48.930;9.526;2023-02-15T05:25:04;-2.10;99.90
18805;DHT22;9530;48.930;9.526;2023-02-15T05:27:50;-2.10;99.90
18805;DHT22;9530;48.930;9.526;2023-02-15T05:30:39;-2.10;99.90
18805;DHT22;9530;48.930;9.526;2023-02-15T05:33:06;-2.30;99.90
18805;DHT22;9530;48.930;9.526;2023-02-15T05:35:33;-2.40;99.90
18805;DHT22;9530;48.930;9.526;2023-02-15T05:38:00;-2.40;99.90
18805;DHT22;9530;48.930;9.526;2023-02-15T05:40:27;-2.50;99.90
18805;DHT22;9530;48.930;9.526;2023-02-15T05:42:55;-2.50;99.90
18805;DHT22;9530;48.930;9.526;2023-02-15T05:45:22;-2.60;99.90
18805;DHT22;9530;48.930;9.526;2023-02-15T05:47:49;-2.60;99.90
18805;DHT22;9530;48.930;9.526;2023-02-15T05:50:16;-2.50;99.90
18805;DHT22;9530;48.930;9.526;2023-02-15T05:52:43;-2.50;99.90
18805;DHT22;9530;48.930;9.526;2023-02-15T05:55:09;-2.50;99.90
18805;DHT22;9530;48.930;9.526;2023-02-15T05:57:36;-2.50;99.90
18805;DHT22;9530;48.930;9.526;2023-02-15T06:00:06;-2.50;99.90
18805;DHT22;9530;48.930;9.526;2023-02-15T06:02:34;-2.60;99.90
18805;DHT22;9530;48.930;9.526;2023-02-15T06:05:01;-2.60;99.90
18805;DHT22;9530;48.930;9.526;2023-02-15T06:07:27;-2.40;99.90
18805;DHT22;9530;48.930;9.526;2023-02-15T06:09:54;-2.40;99.90
18805;DHT22;9530;48.930;9.526;2023-02-15T06:12:21;-2.50;99.90
18805;DHT22;9530;48.930;9.526;2023-02-15T06:14:47;-2.50;99.90
18805;DHT22;9530;48.930;9.526;2023-02-15T06:17:16;-2.50;99.90
18805;DHT22;9530;48.930;9.526;2023-02-15T06:19:43;-2.60;99.90
18805;DHT22;9530;48.930;9.526;2023-02-15T06:22:10;-2.60;99.90
18805;DHT22;9530;48.930;9.526;2023-02-15T06:24:39;-2.60;99.90
18805;DHT22;9530;48.930;9.526;2023-02-15T06:27:07;-2.70;99.90
18805;DHT22;9530;48.930;9.526;2023-02-15T06:29:34;-2.70;99.90
18805;DHT22;9530;48.930;9.526;2023-02-15T06:32:01;-2.80;99.90
18805;DHT22;9530;48.930;9.526;2023-02-15T06:34:29;-2.80;99.90
18805;DHT22;9530;48.930;9.526;2023-02-15T06:36:56;-2.80;99.90
18805;DHT22;9530;48.930;9.526;2023-02-15T06:39:22;-2.90;99.90
18805;DHT22;9530;48.930;9.526;2023-02-15T06:41:49;-2.90;99.90
18805;DHT22;9530;48.930;9.526;2023-02-15T06:44:16;-2.90;99.90
18805;DHT22;9530;48.930;9.526;2023-02-15T06:46:42;-2.90;99.90
18805;DHT22;9530;48.930;9.526;2023-02-15T06:49:09;-2.90;99.90
18805;DHT22;9530;48.930;9.526;2023-02-15T06:51:37;-2.80;99.90
18805;DHT22;9530;48.930;9.526;2023-02-15T06:54:04;-2.80;99.90
18805;DHT22;9530;48.930;9.526;2023-02-15T06:56:31;-2.80;99.90
18805;DHT22;9530;48.930;9.526;2023-02-15T06:58:58;-2.90;99.90
18805;DHT22;9530;48.930;9.526;2023-02-15T07:01:24;-2.90;99.90
18805;DHT22;9530;48.930;9.526;2023-02-15T07:03:51;-2.80;99.90
18805;DHT22;9530;48.930;9.526;2023-02-15T07:06:18;-2.80;99.90
18805;DHT22;9530;48.930;9.526;2023-02-15T07:08:46;-2.70;99.90
18805;DHT22;9530;48.930;9.526;2023-02-15T07:11:12;-2.70;99.90
18805;DHT22;9530;48.930;9.526;2023-02-15T07:13:56;-2.70;99.90
18805;DHT22;9530;48.930;9.526;2023-02-15T07:16:23;-2.60;99.90
18805;DHT22;9530;48.930;9.526;2023-02-15T07:18:50;-2.60;99.90
18805;DHT22;9530;48.930;9.526;2023-02-15T07:21:16;-2.50;99.90
18805;DHT22;9530;48.930;9.526;2023-02-15T07:23:43;-2.40;99.90
18805;DHT22;9530;48.930;9.526;2023-02-15T07:26:11;-2.40;99.90
18805;DHT22;9530;48.930;9.526;2023-02-15T07:28:38;-2.30;99.90
18805;DHT22;9530;48.930;9.526;2023-02-15T07:31:05;-2.40;99.90
18805;DHT22;9530;48.930;9.526;2023-02-15T07:33:32;-2.30;99.90
18805;DHT22;9530;48.930;9.526;2023-02-15T07:36:00;-2.20;99.90
18805;DHT22;9530;48.930;9.526;2023-02-15T07:38:29;-2.20;99.90
18805;DHT22;9530;48.930;9.526;2023-02-15T07:40:58;-2.20;99.90
18805;DHT22;9530;48.930;9.526;2023-02-15T07:43:26;-2.20;99.90
18805;DHT22;9530;48.930;9.526;2023-02-15T07:45:52;-2.10;99.90
18805;DHT22;9530;48.930;9.526;2023-02-15T07:48:19;-2.00;99.90
18805;DHT22;9530;48.930;9.526;2023-02-15T07:50:46;-2.00;99.90
18805;DHT22;9530;48.930;9.526;2023-02-15T07:53:12;-2.00;99.90
18805;DHT22;9530;48.930;9.526;2023-02-15T07:55:39;-1.90;99.90
18805;DHT22;9530;48.930;9.526;2023-02-15T07:58:06;-1.80;99.90
18805;DHT22;9530;48.930;9.526;2023-02-15T08:00:34;-1.80;99.90
18805;DHT22;9530;48.930;9.526;2023-02-15T08:03:22;-1.70;99.90
18805;DHT22;9530;48.930;9.526;2023-02-15T08:05:55;-1.60;99.90
18805;DHT22;9530;48.930;9.526;2023-02-15T08:08:22;-1.50;99.90
18805;DHT22;9530;48.930;9.526;2023-02-15T08:10:59;-1.30;99.90
18805;DHT22;9530;48.930;9.526;2023-02-15T08:13:44;-1.20;99.90
18805;DHT22;9530;48.930;9.526;2023-02-15T08:16:22;-1.20;99.90
18805;DHT22;9530;48.930;9.526;2023-02-15T08:18:49;-1.10;99.90
18805;DHT22;9530;48.930;9.526;2023-02-15T08:21:16;-1.00;99.90
18805;DHT22;9530;48.930;9.526;2023-02-15T08:23:43;-0.90;99.90
18805;DHT22;9530;48.930;9.526;2023-02-15T08:26:10;-0.90;99.90
18805;DHT22;9530;48.930;9.526;2023-02-15T08:28:36;-0.80;99.90
18805;DHT22;9530;48.930;9.526;2023-02-15T08:31:06;-0.70;99.90
18805;DHT22;9530;48.930;9.526;2023-02-15T08:33:36;-0.70;99.90
18805;DHT22;9530;48.930;9.526;2023-02-15T08:36:03;-0.60;99.90
18805;DHT22;9530;48.930;9.526;2023-02-15T08:38:31;-0.60;99.90
18805;DHT22;9530;48.930;9.526;2023-02-15T08:40:57;-0.50;99.90
18805;DHT22;9530;48.930;9.526;2023-02-15T08:43:24;-0.40;99.90
18805;DHT22;9530;48.930;9.526;2023-02-15T08:45:51;-0.40;99.90
18805;DHT22;9530;48.930;9.526;2023-02-15T08:48:17;-0.20;99.90
18805;DHT22;9530;48.930;9.526;2023-02-15T08:50:45;-0.10;99.90
18805;DHT22;9530;48.930;9.526;2023-02-15T08:53:12;-0.10;99.90
18805;DHT22;9530;48.930;9.526;2023-02-15T08:55:39;0.00;99.90
18805;DHT22;9530;48.930;9.526;2023-02-15T08:58:06;0.10;99.90
18805;DHT22;9530;48.930;9.526;2023-02-15T09:00:32;0.20;99.90
18805;DHT22;9530;48.930;9.526;2023-02-15T09:02:59;0.30;99.90
18805;DHT22;9530;48.930;9.526;2023-02-15T09:05:26;0.40;99.90
18805;DHT22;9530;48.930;9.526;2023-02-15T09:07:54;0.40;99.90
18805;DHT22;9530;48.930;9.526;2023-02-15T09:10:20;0.60;99.90
18805;DHT22;9530;48.930;9.526;2023-02-15T09:12:47;0.60;99.90
18805;DHT22;9530;48.930;9.526;2023-02-15T09:15:15;0.70;99.90
18805;DHT22;9530;48.930;9.526;2023-02-15T09:17:42;0.90;99.90
18805;DHT22;9530;48.930;9.526;2023-02-15T09:20:09;0.90;99.90
18805;DHT22;9530;48.930;9.526;2023-02-15T09:22:36;1.00;99.90
18805;DHT22;9530;48.930;9.526;2023-02-15T09:25:04;1.10;99.90
18805;DHT22;9530;48.930;9.526;2023-02-15T09:27:31;1.20;99.90
18805;DHT22;9530;48.930;9.526;2023-02-15T09:29:58;1.40;99.90
18805;DHT22;9530;48.930;9.526;2023-02-15T09:32:24;1.50;99.90
18805;DHT22;9530;48.930;9.526;2023-02-15T09:34:51;1.60;99.90
18805;DHT22;9530;48.930;9.526;2023-02-15T09:37:18;1.70;99.90
18805;DHT22;9530;48.930;9.526;2023-02-15T09:39:44;1.90;99.90
18805;DHT22;9530;48.930;9.526;2023-02-15T09:45:26;2.10;99.90
18805;DHT22;9530;48.930;9.526;2023-02-15T09:48:15;2.30;99.90
18805;DHT22;9530;48.930;9.526;2023-02-15T09:50:54;2.50;99.90
18805;DHT22;9530;48.930;9.526;2023-02-15T09:53:46;2.60;99.90
18805;DHT22;9530;48.930;9.526;2023-02-15T09:56:23;2.80;99.90
18805;DHT22;9530;48.930;9.526;2023-02-15T09:59:01;2.90;99.90
18805;DHT22;9530;48.930;9.526;2023-02-15T10:01:37;3.10;99.90
18805;DHT22;9530;48.930;9.526;2023-02-15T10:04:26;3.30;99.90
18805;DHT22;9530;48.930;9.526;2023-02-15T10:07:00;3.40;99.90
18805;DHT22;9530;48.930;9.526;2023-02-15T10:09:41;3.50;99.90
18805;DHT22;9530;48.930;9.526;2023-02-15T10:12:23;3.50;99.90
18805;DHT22;9530;48.930;9.526;2023-02-15T10:15:04;3.70;99.90
18805;DHT22;9530;48.930;9.526;2023-02-15T10:17:49;3.80;99.90
18805;DHT22;9530;48.930;9.526;2023-02-15T10:20:25;4.00;99.90
18805;DHT22;9530;48.930;9.526;2023-02-15T10:23:06;4.10;99.90
18805;DHT22;9530;48.930;9.526;2023-02-15T10:25:42;4.30;99.90
18805;DHT22;9530;48.930;9.526;2023-02-15T10:28:16;4.50;99.90
18805;DHT22;9530;48.930;9.526;2023-02-15T10:30:46;4.60;99.90
18805;DHT22;9530;48.930;9.526;2023-02-15T10:33:23;4.70;99.90
18805;DHT22;9530;48.930;9.526;2023-02-15T10:36:02;4.80;99.90
18805;DHT22;9530;48.930;9.526;2023-02-15T10:38:38;5.00;99.90
18805;DHT22;9530;48.930;9.526;2023-02-15T10:41:17;5.10;99.90
18805;DHT22;9530;48.930;9.526;2023-02-15T10:43:59;5.30;99.90
18805;DHT22;9530;48.930;9.526;2023-02-15T10:47:01;5.50;99.90
18805;DHT22;9530;48.930;9.526;2023-02-15T10:49:49;5.60;99.90
18805;DHT22;9530;48.930;9.526;2023-02-15T10:52:25;5.70;99.90
18805;DHT22;9530;48.930;9.526;2023-02-15T10:55:02;5.80;99.90
18805;DHT22;9530;48.930;9.526;2023-02-15T10:57:39;6.00;99.90
18805;DHT22;9530;48.930;9.526;2023-02-15T11:00:13;6.30;99.90
18805;DHT22;9530;48.930;9.526;2023-02-15T11:02:53;6.50;99.90
18805;DHT22;9530;48.930;9.526;2023-02-15T11:05:33;6.60;99.90
18805;DHT22;9530;48.930;9.526;2023-02-15T11:08:06;6.70;99.90
18805;DHT22;9530;48.930;9.526;2023-02-15T11:10:36;6.80;99.90
18805;DHT22;9530;48.930;9.526;2023-02-15T11:13:08;6.80;99.90
18805;DHT22;9530;48.930;9.526;2023-02-15T11:15:38;6.90;99.90
18805;DHT22;9530;48.930;9.526;2023-02-15T11:18:11;7.10;99.90
18805;DHT22;9530;48.930;9.526;2023-02-15T11:20:43;7.10;99.90
18805;DHT22;9530;48.930;9.526;2023-02-15T11:23:13;7.20;99.90
18805;DHT22;9530;48.930;9.526;2023-02-15T11:25:43;7.30;99.90
18805;DHT22;9530;48.930;9.526;2023-02-15T11:28:18;7.40;99.90
18805;DHT22;9530;48.930;9.526;2023-02-15T11:30:49;7.40;99.90
18805;DHT22;9530;48.930;9.526;2023-02-15T11:33:20;7.60;99.90
18805;DHT22;9530;48.930;9.526;2023-02-15T11:35:53;7.70;99.90
18805;DHT22;9530;48.930;9.526;2023-02-15T11:38:23;7.80;99.90
18805;DHT22;9530;48.930;9.526;2023-02-15T11:40:54;7.90;99.90
18805;DHT22;9530;48.930;9.526;2023-02-15T11:43:28;8.10;99.90
18805;DHT22;9530;48.930;9.526;2023-02-15T11:45:56;8.20;99.90
18805;DHT22;9530;48.930;9.526;2023-02-15T11:48:23;8.20;99.90
18805;DHT22;9530;48.930;9.526;2023-02-15T11:50:51;8.20;99.90
18805;DHT22;9530;48.930;9.526;2023-02-15T11:53:20;8.30;99.90
18805;DHT22;9530;48.930;9.526;2023-02-15T11:55:50;8.40;99.90
18805;DHT22;9530;48.930;9.526;2023-02-15T11:58:25;8.40;99.90
18805;DHT22;9530;48.930;9.526;2023-02-15T12:00:56;8.50;99.90
18805;DHT22;9530;48.930;9.526;2023-02-15T12:03:30;8.60;99.90
18805;DHT22;9530;48.930;9.526;2023-02-15T12:06:03;8.60;99.90
18805;DHT22;9530;48.930;9.526;2023-02-15T12:08:37;8.60;99.90
18805;DHT22;9530;48.930;9.526;2023-02-15T12:11:07;8.70;99.90
18805;DHT22;9530;48.930;9.526;2023-02-15T12:13:54;8.80;99.90
18805;DHT22;9530;48.930;9.526;2023-02-15T12:16:21;8.90;99.90
18805;DHT22;9530;48.930;9.526;2023-02-15T12:18:48;9.00;99.90
18805;DHT22;9530;48.930;9.526;2023-02-15T12:21:27;9.10;99.90
18805;DHT22;9530;48.930;9.526;2023-02-15T12:23:57;9.10;99.90
18805;DHT22;9530;48.930;9.526;2023-02-15T12:26:25;9.10;99.90
18805;DHT22;9530;48.930;9.526;2023-02-15T12:28:54;9.20;99.90
18805;DHT22;9530;48.930;9.526;2023-02-15T12:31:26;9.30;99.90
18805;DHT22;9530;48.930;9.526;2023-02-15T12:33:56;9.40;99.90
18805;DHT22;9530;48.930;9.526;2023-02-15T12:36:29;9.50;99.90
18805;DHT22;9530;48.930;9.526;2023-02-15T12:39:16;9.60;99.90
18805;DHT22;9530;48.930;9.526;2023-02-15T12:41:46;9.60;99.90
18805;DHT22;9530;48.930;9.526;2023-02-15T12:44:24;9.50;99.90
18805;DHT22;9530;48.930;9.526;2023-02-15T12:46:57;9.60;99.90
18805;DHT22;9530;48.930;9.526;2023-02-15T12:49:24;9.70;99.90
18805;DHT22;9530;48.930;9.526;2023-02-15T12:51:54;9.70;99.90
18805;DHT22;9530;48.930;9.526;2023-02-15T12:54:35;9.60;99.90
18805;DHT22;9530;48.930;9.526;2023-02-15T12:57:21;9.70;99.90
18805;DHT22;9530;48.930;9.526;2023-02-15T12:59:49;9.70;99.90
18805;DHT22;9530;48.930;9.526;2023-02-15T13:02:22;9.70;99.90
18805;DHT22;9530;48.930;9.526;2023-02-15T13:04:50;9.80;99.90
18805;DHT22;9530;48.930;9.526;2023-02-15T13:07:18;9.80;99.90
18805;DHT22;9530;48.930;9.526;2023-02-15T13:09:46;9.80;99.90
18805;DHT22;9530;48.930;9.526;2023-02-15T13:12:20;9.90;99.90
18805;DHT22;9530;48.930;9.526;2023-02-15T13:14:48;9.90;99.90
18805;DHT22;9530;48.930;9.526;2023-02-15T13:17:18;10.00;99.90
18805;DHT22;9530;48.930;9.526;2023-02-15T13:19:51;10.10;99.90
18805;DHT22;9530;48.930;9.526;2023-02-15T13:22:25;10.00;99.90
18805;DHT22;9530;48.930;9.526;2023-02-15T13:24:56;10.00;99.90
18805;DHT22;9530;48.930;9.526;2023-02-15T13:27:29;10.10;99.90
18805;DHT22;9530;48.930;9.526;2023-02-15T13:30:02;10.10;99.90
18805;DHT22;9530;48.930;9.526;2023-02-15T13:32:32;10.30;99.90
18805;DHT22;9530;48.930;9.526;2023-02-15T13:35:02;10.20;99.90
18805;DHT22;9530;48.930;9.526;2023-02-15T13:37:45;10.20;99.90
18805;DHT22;9530;48.930;9.526;2023-02-15T13:40:18;10.10;99.90
18805;DHT22;9530;48.930;9.526;2023-02-15T13:42:52;10.20;99.90
18805;DHT22;9530;48.930;9.526;2023-02-15T13:45:33;10.30;99.90
18805;DHT22;9530;48.930;9.526;2023-02-15T13:48:12;10.20;99.90
18805;DHT22;9530;48.930;9.526;2023-02-15T13:50:52;10.20;99.90
18805;DHT22;9530;48.930;9.526;2023-02-15T13:53:38;10.30;99.90
18805;DHT22;9530;48.930;9.526;2023-02-15T13:56:15;10.30;99.90
18805;DHT22;9530;48.930;9.526;2023-02-15T13:59:12;10.30;99.90
18805;DHT22;9530;48.930;9.526;2023-02-15T14:01:46;10.40;99.90
18805;DHT22;9530;48.930;9.526;2023-02-15T14:04:48;10.40;99.90
18805;DHT22;9530;48.930;9.526;2023-02-15T14:07:26;10.40;99.90
18805;DHT22;9530;48.930;9.526;2023-02-15T14:10:14;10.40;99.90
18805;DHT22;9530;48.930;9.526;2023-02-15T14:13:02;10.50;99.90
18805;DHT22;9530;48.930;9.526;2023-02-15T14:15:35;10.60;99.90
18805;DHT22;9530;48.930;9.526;2023-02-15T14:18:14;10.70;99.90
18805;DHT22;9530;48.930;9.526;2023-02-15T14:20:54;10.70;99.90
18805;DHT22;9530;48.930;9.526;2023-02-15T14:23:33;10.70;99.90
18805;DHT22;9530;48.930;9.526;2023-02-15T14:26:10;10.60;99.90
18805;DHT22;9530;48.930;9.526;2023-02-15T14:28:45;10.60;99.90
18805;DHT22;9530;48.930;9.526;2023-02-15T14:31:13;10.70;99.90
18805;DHT22;9530;48.930;9.526;2023-02-15T14:33:46;10.80;99.90
18805;DHT22;9530;48.930;9.526;2023-02-15T14:36:17;10.80;99.90
18805;DHT22;9530;48.930;9.526;2023-02-15T14:38:54;10.80;99.90
18805;DHT22;9530;48.930;9.526;2023-02-15T14:41:29;10.80;99.90
18805;DHT22;9530;48.930;9.526;2023-02-15T14:44:01;10.90;99.90
18805;DHT22;9530;48.930;9.526;2023-02-15T14:46:36;10.90;99.90
18805;DHT22;9530;48.930;9.526;2023-02-15T14:49:10;11.00;99.90
18805;DHT22;9530;48.930;9.526;2023-02-15T14:51:59;11.00;99.90
18805;DHT22;9530;48.930;9.526;2023-02-15T14:54:58;10.90;99.90
18805;DHT22;9530;48.930;9.526;2023-02-15T14:57:32;10.90;99.90
18805;DHT22;9530;48.930;9.526;2023-02-15T15:00:00;10.80;99.90
18805;DHT22;9530;48.930;9.526;2023-02-15T15:02:42;10.70;99.90
18805;DHT22;9530;48.930;9.526;2023-02-15T15:05:16;10.80;99.90
18805;DHT22;9530;48.930;9.526;2023-02-15T15:07:46;10.80;99.90
18805;DHT22;9530;48.930;9.526;2023-02-15T15:10:40;10.80;99.90
18805;DHT22;9530;48.930;9.526;2023-02-15T15:16:37;10.90;99.90
18805;DHT22;9530;48.930;9.526;2023-02-15T15:22:32;10.90;99.90
18805;DHT22;9530;48.930;9.526;2023-02-15T15:25:00;11.00;99.90
18805;DHT22;9530;48.930;9.526;2023-02-15T15:27:47;10.90;99.90
18805;DHT22;9530;48.930;9.526;2023-02-15T15:30:47;10.90;99.90
18805;DHT22;9530;48.930;9.526;2023-02-15T15:33:29;10.90;99.90
18805;DHT22;9530;48.930;9.526;2023-02-15T15:36:18;10.80;99.90
18805;DHT22;9530;48.930;9.526;2023-02-15T15:39:00;10.70;99.90
18805;DHT22;9530;48.930;9.526;2023-02-15T15:41:39;10.70;99.90
18805;DHT22;9530;48.930;9.526;2023-02-15T15:44:34;10.60;99.90
18805;DHT22;9530;48.930;9.526;2023-02-15T15:47:18;10.60;99.90
18805;DHT22;9530;48.930;9.526;2023-02-15T15:49:47;10.60;99.90
18805;DHT22;9530;48.930;9.526;2023-02-15T15:52:16;10.60;99.90
18805;DHT22;9530;48.930;9.526;2023-02-15T15:54:46;10.40;99.90
18805;DHT22;9530;48.930;9.526;2023-02-15T15:57:26;10.20;99.90
18805;DHT22;9530;48.930;9.526;2023-02-15T15:59:54;10.20;99.90
18805;DHT22;9530;48.930;9.526;2023-02-15T16:02:24;10.00;99.90
18805;DHT22;9530;48.930;9.526;2023-02-15T16:04:51;9.70;99.90
18805;DHT22;9530;48.930;9.526;2023-02-15T16:07:24;9.60;99.90
18805;DHT22;9530;48.930;9.526;2023-02-15T16:09:56;9.40;99.90
18805;DHT22;9530;48.930;9.526;2023-02-15T16:12:25;9.30;99.90
18805;DHT22;9530;48.930;9.526;2023-02-15T16:14:52;9.00;99.90
18805;DHT22;9530;48.930;9.526;2023-02-15T16:17:22;8.70;99.90
18805;DHT22;9530;48.930;9.526;2023-02-15T16:19:49;8.40;99.90
18805;DHT22;9530;48.930;9.526;2023-02-15T16:22:19;7.90;99.90
18805;DHT22;9530;48.930;9.526;2023-02-15T16:25:07;7.70;99.90
18805;DHT22;9530;48.930;9.526;2023-02-15T16:27:41;7.40;99.90
18805;DHT22;9530;48.930;9.526;2023-02-15T16:32:44;6.60;99.90
18805;DHT22;9530;48.930;9.526;2023-02-15T16:35:14;6.40;99.90
18805;DHT22;9530;48.930;9.526;2023-02-15T16:37:41;6.20;99.90